Terminal Aerodrome Forecast
Issued by NWS

Home | Current Version | Previous Version | Text Only | Print | Product List | Glossary On
Versions: 1 2 3 4 5 6 7 8 9 10 11 12 13 14
000
FTUS42 TJSJ 061135
TAFNCM
TAF
TNCM 061135Z 0612/0712 09010KT P6SM VCSH SCT019
     FM061330 10015KT P6SM SCT020
     FM062300 08008KT P6SM FEW022=

USA.gov is the U.S. government's official web portal to all federal, state and local government web resources and services.